sensor_id;sensor_type;location;lat;lon;timestamp;temperature;humidity
44863;DHT22;30597;49.628;10.850;2023-03-05T00:01:25;18.30;48.10
44863;DHT22;30597;49.628;10.850;2023-03-05T00:03:52;18.30;48.00
44863;DHT22;30597;49.628;10.850;2023-03-05T00:06:22;18.20;48.30
44863;DHT22;30597;49.628;10.850;2023-03-05T00:08:48;18.10;48.10
44863;DHT22;30597;49.628;10.850;2023-03-05T00:11:14;18.10;48.60
44863;DHT22;30597;49.628;10.850;2023-03-05T00:13:41;18.00;48.50
44863;DHT22;30597;49.628;10.850;2023-03-05T00:16:09;18.00;48.70
44863;DHT22;30597;49.628;10.850;2023-03-05T00:18:35;18.00;48.80
44863;DHT22;30597;49.628;10.850;2023-03-05T00:21:00;18.00;48.70
44863;DHT22;30597;49.628;10.850;2023-03-05T00:23:26;18.00;48.90
44863;DHT22;30597;49.628;10.850;2023-03-05T00:25:52;18.00;48.70
44863;DHT22;30597;49.628;10.850;2023-03-05T00:28:17;17.90;48.60
44863;DHT22;30597;49.628;10.850;2023-03-05T00:30:43;17.90;48.80
44863;DHT22;30597;49.628;10.850;2023-03-05T00:33:10;17.90;49.90
44863;DHT22;30597;49.628;10.850;2023-03-05T00:35:41;17.90;49.50
44863;DHT22;30597;49.628;10.850;2023-03-05T00:38:06;17.90;49.30
44863;DHT22;30597;49.628;10.850;2023-03-05T00:40:38;17.90;49.50
44863;DHT22;30597;49.628;10.850;2023-03-05T00:43:04;17.90;49.50
44863;DHT22;30597;49.628;10.850;2023-03-05T00:45:30;18.00;49.50
44863;DHT22;30597;49.628;10.850;2023-03-05T00:47:56;18.00;49.50
44863;DHT22;30597;49.628;10.850;2023-03-05T00:50:21;18.00;49.40
44863;DHT22;30597;49.628;10.850;2023-03-05T00:52:47;18.00;49.50
44863;DHT22;30597;49.628;10.850;2023-03-05T00:55:13;18.10;49.60
44863;DHT22;30597;49.628;10.850;2023-03-05T00:57:38;18.10;49.60
44863;DHT22;30597;49.628;10.850;2023-03-05T01:00:05;18.10;49.40
44863;DHT22;30597;49.628;10.850;2023-03-05T01:02:31;18.10;49.60
44863;DHT22;30597;49.628;10.850;2023-03-05T01:04:56;18.00;49.60
44863;DHT22;30597;49.628;10.850;2023-03-05T01:07:22;18.00;49.50
44863;DHT22;30597;49.628;10.850;2023-03-05T01:09:47;18.00;49.80
44863;DHT22;30597;49.628;10.850;2023-03-05T01:12:13;18.00;49.80
44863;DHT22;30597;49.628;10.850;2023-03-05T01:14:38;17.90;49.80
44863;DHT22;30597;49.628;10.850;2023-03-05T01:17:04;17.90;50.00
44863;DHT22;30597;49.628;10.850;2023-03-05T01:19:30;17.90;50.00
44863;DHT22;30597;49.628;10.850;2023-03-05T01:21:55;17.90;50.30
44863;DHT22;30597;49.628;10.850;2023-03-05T01:24:21;17.80;50.50
44863;DHT22;30597;49.628;10.850;2023-03-05T01:26:47;17.80;50.50
44863;DHT22;30597;49.628;10.850;2023-03-05T01:29:14;17.80;50.20
44863;DHT22;30597;49.628;10.850;2023-03-05T01:31:40;17.80;50.50
44863;DHT22;30597;49.628;10.850;2023-03-05T01:34:05;17.80;50.60
44863;DHT22;30597;49.628;10.850;2023-03-05T01:36:32;17.80;50.70
44863;DHT22;30597;49.628;10.850;2023-03-05T01:38:57;17.80;50.60
44863;DHT22;30597;49.628;10.850;2023-03-05T01:41:23;17.70;50.60
44863;DHT22;30597;49.628;10.850;2023-03-05T01:43:50;17.70;50.60
44863;DHT22;30597;49.628;10.850;2023-03-05T01:49:14;17.70;50.60
44863;DHT22;30597;49.628;10.850;2023-03-05T01:54:11;17.60;50.60
44863;DHT22;30597;49.628;10.850;2023-03-05T01:56:38;17.60;50.80
44863;DHT22;30597;49.628;10.850;2023-03-05T01:59:04;17.60;50.70
44863;DHT22;30597;49.628;10.850;2023-03-05T02:01:38;17.60;50.70
44863;DHT22;30597;49.628;10.850;2023-03-05T02:04:07;17.60;50.70
44863;DHT22;30597;49.628;10.850;2023-03-05T02:06:34;17.60;50.80
44863;DHT22;30597;49.628;10.850;2023-03-05T02:08:59;17.60;50.90
44863;DHT22;30597;49.628;10.850;2023-03-05T02:11:25;17.60;51.00
44863;DHT22;30597;49.628;10.850;2023-03-05T02:13:51;17.60;51.10
44863;DHT22;30597;49.628;10.850;2023-03-05T02:16:16;17.50;51.10
44863;DHT22;30597;49.628;10.850;2023-03-05T02:18:42;17.50;51.10
44863;DHT22;30597;49.628;10.850;2023-03-05T02:21:11;17.50;51.10
44863;DHT22;30597;49.628;10.850;2023-03-05T02:23:37;17.50;51.20
44863;DHT22;30597;49.628;10.850;2023-03-05T02:26:06;17.60;51.70
44863;DHT22;30597;49.628;10.850;2023-03-05T02:28:48;17.60;51.30
44863;DHT22;30597;49.628;10.850;2023-03-05T02:31:20;17.60;51.40
44863;DHT22;30597;49.628;10.850;2023-03-05T02:33:46;17.60;51.40
44863;DHT22;30597;49.628;10.850;2023-03-05T02:36:12;17.60;51.50
44863;DHT22;30597;49.628;10.850;2023-03-05T02:38:39;17.60;51.50
44863;DHT22;30597;49.628;10.850;2023-03-05T02:41:05;17.60;51.70
44863;DHT22;30597;49.628;10.850;2023-03-05T02:43:30;17.70;51.70
44863;DHT22;30597;49.628;10.850;2023-03-05T02:45:56;17.70;51.60
44863;DHT22;30597;49.628;10.850;2023-03-05T02:48:21;17.60;51.50
44863;DHT22;30597;49.628;10.850;2023-03-05T02:50:47;17.60;51.60
44863;DHT22;30597;49.628;10.850;2023-03-05T02:53:13;17.60;51.80
44863;DHT22;30597;49.628;10.850;2023-03-05T02:55:39;17.50;51.70
44863;DHT22;30597;49.628;10.850;2023-03-05T02:58:05;17.50;51.70
44863;DHT22;30597;49.628;10.850;2023-03-05T03:00:30;17.50;51.70
44863;DHT22;30597;49.628;10.850;2023-03-05T03:02:56;17.50;51.80
44863;DHT22;30597;49.628;10.850;2023-03-05T03:05:22;17.50;51.80
44863;DHT22;30597;49.628;10.850;2023-03-05T03:07:48;17.50;51.90
44863;DHT22;30597;49.628;10.850;2023-03-05T03:10:13;17.50;52.30
44863;DHT22;30597;49.628;10.850;2023-03-05T03:12:40;17.60;52.20
44863;DHT22;30597;49.628;10.850;2023-03-05T03:15:08;17.60;52.10
44863;DHT22;30597;49.628;10.850;2023-03-05T03:17:35;17.60;52.00
44863;DHT22;30597;49.628;10.850;2023-03-05T03:20:02;17.60;51.90
44863;DHT22;30597;49.628;10.850;2023-03-05T03:22:28;17.50;52.00
44863;DHT22;30597;49.628;10.850;2023-03-05T03:24:54;17.50;52.10
44863;DHT22;30597;49.628;10.850;2023-03-05T03:27:20;17.40;52.20
44863;DHT22;30597;49.628;10.850;2023-03-05T03:29:46;17.40;52.20
44863;DHT22;30597;49.628;10.850;2023-03-05T03:32:11;17.40;52.20
44863;DHT22;30597;49.628;10.850;2023-03-05T03:34:37;17.40;52.30
44863;DHT22;30597;49.628;10.850;2023-03-05T03:37:02;17.40;52.30
44863;DHT22;30597;49.628;10.850;2023-03-05T03:39:28;17.40;52.30
44863;DHT22;30597;49.628;10.850;2023-03-05T03:41:53;17.50;52.40
44863;DHT22;30597;49.628;10.850;2023-03-05T03:44:21;17.40;52.40
44863;DHT22;30597;49.628;10.850;2023-03-05T03:46:48;17.50;52.50
44863;DHT22;30597;49.628;10.850;2023-03-05T03:49:16;17.40;52.40
44863;DHT22;30597;49.628;10.850;2023-03-05T03:51:43;17.40;52.50
44863;DHT22;30597;49.628;10.850;2023-03-05T03:54:09;17.40;52.40
44863;DHT22;30597;49.628;10.850;2023-03-05T03:56:35;17.50;52.40
44863;DHT22;30597;49.628;10.850;2023-03-05T03:59:00;17.40;52.30
44863;DHT22;30597;49.628;10.850;2023-03-05T04:01:26;17.40;52.30
44863;DHT22;30597;49.628;10.850;2023-03-05T04:03:51;17.40;52.30
44863;DHT22;30597;49.628;10.850;2023-03-05T04:06:17;17.40;52.30
44863;DHT22;30597;49.628;10.850;2023-03-05T04:08:42;17.40;52.30
44863;DHT22;30597;49.628;10.850;2023-03-05T04:11:08;17.40;52.40
44863;DHT22;30597;49.628;10.850;2023-03-05T04:13:34;17.40;52.30
44863;DHT22;30597;49.628;10.850;2023-03-05T04:15:59;17.40;52.20
44863;DHT22;30597;49.628;10.850;2023-03-05T04:18:25;17.40;52.30
44863;DHT22;30597;49.628;10.850;2023-03-05T04:20:50;17.30;52.20
44863;DHT22;30597;49.628;10.850;2023-03-05T04:23:16;17.40;52.40
44863;DHT22;30597;49.628;10.850;2023-03-05T04:25:42;17.30;52.50
44863;DHT22;30597;49.628;10.850;2023-03-05T04:28:08;17.30;52.60
44863;DHT22;30597;49.628;10.850;2023-03-05T04:30:33;17.40;52.70
44863;DHT22;30597;49.628;10.850;2023-03-05T04:32:59;17.40;52.40
44863;DHT22;30597;49.628;10.850;2023-03-05T04:35:25;17.50;52.50
44863;DHT22;30597;49.628;10.850;2023-03-05T04:37:50;17.60;52.40
44863;DHT22;30597;49.628;10.850;2023-03-05T04:40:16;17.70;52.50
44863;DHT22;30597;49.628;10.850;2023-03-05T04:42:42;17.80;52.30
44863;DHT22;30597;49.628;10.850;2023-03-05T04:45:08;17.90;52.30
44863;DHT22;30597;49.628;10.850;2023-03-05T04:47:35;17.90;52.20
44863;DHT22;30597;49.628;10.850;2023-03-05T04:50:00;18.00;52.10
44863;DHT22;30597;49.628;10.850;2023-03-05T04:52:26;18.00;52.00
44863;DHT22;30597;49.628;10.850;2023-03-05T04:54:51;18.10;52.10
44863;DHT22;30597;49.628;10.850;2023-03-05T04:57:18;18.20;52.10
44863;DHT22;30597;49.628;10.850;2023-03-05T04:59:44;18.20;52.00
44863;DHT22;30597;49.628;10.850;2023-03-05T05:02:10;18.30;51.90
44863;DHT22;30597;49.628;10.850;2023-03-05T05:04:35;18.30;51.80
44863;DHT22;30597;49.628;10.850;2023-03-05T05:07:02;18.40;51.90
44863;DHT22;30597;49.628;10.850;2023-03-05T05:09:28;18.30;51.50
44863;DHT22;30597;49.628;10.850;2023-03-05T05:11:53;18.40;51.70
44863;DHT22;30597;49.628;10.850;2023-03-05T05:14:19;18.40;51.60
44863;DHT22;30597;49.628;10.850;2023-03-05T05:16:45;18.50;51.60
44863;DHT22;30597;49.628;10.850;2023-03-05T05:19:10;18.50;51.40
44863;DHT22;30597;49.628;10.850;2023-03-05T05:21:36;18.50;51.50
44863;DHT22;30597;49.628;10.850;2023-03-05T05:24:02;18.50;51.60
44863;DHT22;30597;49.628;10.850;2023-03-05T05:26:28;18.50;51.40
44863;DHT22;30597;49.628;10.850;2023-03-05T05:28:53;18.50;51.50
44863;DHT22;30597;49.628;10.850;2023-03-05T05:31:19;18.40;51.60
44863;DHT22;30597;49.628;10.850;2023-03-05T05:33:44;18.40;51.70
44863;DHT22;30597;49.628;10.850;2023-03-05T05:36:13;18.30;51.70
44863;DHT22;30597;49.628;10.850;2023-03-05T05:38:40;18.30;51.70
44863;DHT22;30597;49.628;10.850;2023-03-05T05:41:11;18.30;51.70
44863;DHT22;30597;49.628;10.850;2023-03-05T05:43:37;18.30;51.90
44863;DHT22;30597;49.628;10.850;2023-03-05T05:46:05;18.20;51.70
44863;DHT22;30597;49.628;10.850;2023-03-05T05:48:32;18.20;52.10
44863;DHT22;30597;49.628;10.850;2023-03-05T05:50:58;18.20;52.10
44863;DHT22;30597;49.628;10.850;2023-03-05T05:53:25;18.10;52.00
44863;DHT22;30597;49.628;10.850;2023-03-05T05:55:51;18.00;52.00
44863;DHT22;30597;49.628;10.850;2023-03-05T05:58:17;18.00;52.10
44863;DHT22;30597;49.628;10.850;2023-03-05T06:00:42;18.00;52.10
44863;DHT22;30597;49.628;10.850;2023-03-05T06:03:08;18.00;52.30
44863;DHT22;30597;49.628;10.850;2023-03-05T06:05:34;17.90;52.10
44863;DHT22;30597;49.628;10.850;2023-03-05T06:08:00;17.90;52.30
44863;DHT22;30597;49.628;10.850;2023-03-05T06:10:25;17.80;52.30
44863;DHT22;30597;49.628;10.850;2023-03-05T06:12:51;17.80;52.50
44863;DHT22;30597;49.628;10.850;2023-03-05T06:15:16;17.70;52.30
44863;DHT22;30597;49.628;10.850;2023-03-05T06:17:44;17.70;52.40
44863;DHT22;30597;49.628;10.850;2023-03-05T06:20:11;17.60;52.60
44863;DHT22;30597;49.628;10.850;2023-03-05T06:22:38;17.60;53.40
44863;DHT22;30597;49.628;10.850;2023-03-05T06:25:05;17.70;53.30
44863;DHT22;30597;49.628;10.850;2023-03-05T06:27:31;17.70;53.20
44863;DHT22;30597;49.628;10.850;2023-03-05T06:29:56;17.70;53.00
44863;DHT22;30597;49.628;10.850;2023-03-05T06:32:22;17.70;53.10
44863;DHT22;30597;49.628;10.850;2023-03-05T06:34:48;17.70;53.10
44863;DHT22;30597;49.628;10.850;2023-03-05T06:37:14;17.70;53.10
44863;DHT22;30597;49.628;10.850;2023-03-05T06:39:39;17.60;53.20
44863;DHT22;30597;49.628;10.850;2023-03-05T06:42:05;17.60;53.10
44863;DHT22;30597;49.628;10.850;2023-03-05T06:44:31;17.60;53.20
44863;DHT22;30597;49.628;10.850;2023-03-05T06:46:56;17.50;53.10
44863;DHT22;30597;49.628;10.850;2023-03-05T06:49:22;17.50;53.20
44863;DHT22;30597;49.628;10.850;2023-03-05T06:51:47;17.50;53.30
44863;DHT22;30597;49.628;10.850;2023-03-05T06:54:14;17.40;53.30
44863;DHT22;30597;49.628;10.850;2023-03-05T06:56:42;17.50;53.60
44863;DHT22;30597;49.628;10.850;2023-03-05T06:59:10;17.60;53.60
44863;DHT22;30597;49.628;10.850;2023-03-05T07:01:35;17.70;53.50
44863;DHT22;30597;49.628;10.850;2023-03-05T07:04:01;17.90;53.40
44863;DHT22;30597;49.628;10.850;2023-03-05T07:06:28;18.00;52.90
44863;DHT22;30597;49.628;10.850;2023-03-05T07:08:56;18.10;52.80
44863;DHT22;30597;49.628;10.850;2023-03-05T07:11:23;18.30;53.00
44863;DHT22;30597;49.628;10.850;2023-03-05T07:13:49;18.40;52.90
44863;DHT22;30597;49.628;10.850;2023-03-05T07:16:26;18.50;51.50
44863;DHT22;30597;49.628;10.850;2023-03-05T07:18:53;18.60;50.80
44863;DHT22;30597;49.628;10.850;2023-03-05T07:21:23;18.60;50.80
44863;DHT22;30597;49.628;10.850;2023-03-05T07:23:49;18.70;51.00
44863;DHT22;30597;49.628;10.850;2023-03-05T07:26:15;18.80;51.00
44863;DHT22;30597;49.628;10.850;2023-03-05T07:28:41;18.90;51.00
44863;DHT22;30597;49.628;10.850;2023-03-05T07:31:11;19.00;51.00
44863;DHT22;30597;49.628;10.850;2023-03-05T07:33:37;19.10;51.00
44863;DHT22;30597;49.628;10.850;2023-03-05T07:36:06;19.10;50.90
44863;DHT22;30597;49.628;10.850;2023-03-05T07:38:32;19.20;50.40
44863;DHT22;30597;49.628;10.850;2023-03-05T07:41:03;19.20;50.20
44863;DHT22;30597;49.628;10.850;2023-03-05T07:43:28;19.20;50.10
44863;DHT22;30597;49.628;10.850;2023-03-05T07:45:54;19.30;50.40
44863;DHT22;30597;49.628;10.850;2023-03-05T07:48:19;19.30;50.20
44863;DHT22;30597;49.628;10.850;2023-03-05T07:50:46;19.40;50.30
44863;DHT22;30597;49.628;10.850;2023-03-05T07:53:11;19.40;50.20
44863;DHT22;30597;49.628;10.850;2023-03-05T07:55:44;19.50;50.20
44863;DHT22;30597;49.628;10.850;2023-03-05T07:58:11;19.50;49.70
44863;DHT22;30597;49.628;10.850;2023-03-05T08:00:37;19.50;49.50
44863;DHT22;30597;49.628;10.850;2023-03-05T08:03:03;19.50;49.30
44863;DHT22;30597;49.628;10.850;2023-03-05T08:05:28;19.50;49.20
44863;DHT22;30597;49.628;10.850;2023-03-05T08:07:54;19.60;49.10
44863;DHT22;30597;49.628;10.850;2023-03-05T08:10:19;19.60;49.00
44863;DHT22;30597;49.628;10.850;2023-03-05T08:12:45;19.60;49.10
44863;DHT22;30597;49.628;10.850;2023-03-05T08:15:10;19.60;49.20
44863;DHT22;30597;49.628;10.850;2023-03-05T08:17:36;19.60;49.20
44863;DHT22;30597;49.628;10.850;2023-03-05T08:20:02;19.70;49.10
44863;DHT22;30597;49.628;10.850;2023-03-05T08:22:32;19.80;49.20
44863;DHT22;30597;49.628;10.850;2023-03-05T08:24:59;19.80;49.20
44863;DHT22;30597;49.628;10.850;2023-03-05T08:27:24;19.80;49.20
44863;DHT22;30597;49.628;10.850;2023-03-05T08:29:50;19.90;49.30
44863;DHT22;30597;49.628;10.850;2023-03-05T08:32:15;19.90;49.20
44863;DHT22;30597;49.628;10.850;2023-03-05T08:34:41;20.00;49.30
44863;DHT22;30597;49.628;10.850;2023-03-05T08:37:06;20.00;49.10
44863;DHT22;30597;49.628;10.850;2023-03-05T08:39:34;20.10;49.10
44863;DHT22;30597;49.628;10.850;2023-03-05T08:41:59;20.00;49.00
44863;DHT22;30597;49.628;10.850;2023-03-05T08:44:25;20.10;49.20
44863;DHT22;30597;49.628;10.850;2023-03-05T08:46:50;20.10;49.10
44863;DHT22;30597;49.628;10.850;2023-03-05T08:49:16;20.10;49.10
44863;DHT22;30597;49.628;10.850;2023-03-05T08:51:41;20.20;49.10
44863;DHT22;30597;49.628;10.850;2023-03-05T08:54:08;20.20;49.10
44863;DHT22;30597;49.628;10.850;2023-03-05T08:56:34;20.20;49.10
44863;DHT22;30597;49.628;10.850;2023-03-05T08:59:01;20.20;48.70
44863;DHT22;30597;49.628;10.850;2023-03-05T09:01:27;20.20;47.90
44863;DHT22;30597;49.628;10.850;2023-03-05T09:03:53;20.20;48.00
44863;DHT22;30597;49.628;10.850;2023-03-05T09:06:19;20.20;48.00
44863;DHT22;30597;49.628;10.850;2023-03-05T09:08:44;20.20;47.90
44863;DHT22;30597;49.628;10.850;2023-03-05T09:11:12;20.20;47.90
44863;DHT22;30597;49.628;10.850;2023-03-05T09:13:37;20.20;47.90
44863;DHT22;30597;49.628;10.850;2023-03-05T09:16:06;20.20;47.80
44863;DHT22;30597;49.628;10.850;2023-03-05T09:18:32;20.20;47.70
44863;DHT22;30597;49.628;10.850;2023-03-05T09:21:04;20.20;47.80
44863;DHT22;30597;49.628;10.850;2023-03-05T09:23:30;20.20;47.80
44863;DHT22;30597;49.628;10.850;2023-03-05T09:25:55;20.20;47.70
44863;DHT22;30597;49.628;10.850;2023-03-05T09:28:21;20.30;47.70
44863;DHT22;30597;49.628;10.850;2023-03-05T09:30:46;20.20;47.50
44863;DHT22;30597;49.628;10.850;2023-03-05T09:33:12;20.20;47.50
44863;DHT22;30597;49.628;10.850;2023-03-05T09:35:38;20.20;47.40
44863;DHT22;30597;49.628;10.850;2023-03-05T09:38:03;20.30;47.50
44863;DHT22;30597;49.628;10.850;2023-03-05T09:41:31;20.30;47.40
44863;DHT22;30597;49.628;10.850;2023-03-05T09:46:53;20.30;47.10
44863;DHT22;30597;49.628;10.850;2023-03-05T09:49:54;20.30;47.00
44863;DHT22;30597;49.628;10.850;2023-03-05T09:52:36;20.30;46.90
44863;DHT22;30597;49.628;10.850;2023-03-05T09:55:54;20.30;46.90
44863;DHT22;30597;49.628;10.850;2023-03-05T09:57:59;20.30;46.90
44863;DHT22;30597;49.628;10.850;2023-03-05T10:00:35;20.30;46.80
44863;DHT22;30597;49.628;10.850;2023-03-05T10:03:21;20.30;46.70
44863;DHT22;30597;49.628;10.850;2023-03-05T10:05:59;20.30;46.70
44863;DHT22;30597;49.628;10.850;2023-03-05T10:08:56;20.30;46.70
44863;DHT22;30597;49.628;10.850;2023-03-05T10:14:27;20.30;46.60
44863;DHT22;30597;49.628;10.850;2023-03-05T10:19:59;20.30;46.60
44863;DHT22;30597;49.628;10.850;2023-03-05T10:23:04;20.20;46.60
44863;DHT22;30597;49.628;10.850;2023-03-05T10:25:52;20.30;46.50
44863;DHT22;30597;49.628;10.850;2023-03-05T10:31:09;20.30;46.80
44863;DHT22;30597;49.628;10.850;2023-03-05T10:33:56;20.20;46.60
44863;DHT22;30597;49.628;10.850;2023-03-05T10:39:39;20.20;46.60
44863;DHT22;30597;49.628;10.850;2023-03-05T10:42:55;20.20;46.70
44863;DHT22;30597;49.628;10.850;2023-03-05T10:45:14;20.20;46.70
44863;DHT22;30597;49.628;10.850;2023-03-05T10:50:20;20.20;46.60
44863;DHT22;30597;49.628;10.850;2023-03-05T10:52:51;20.20;46.40
44863;DHT22;30597;49.628;10.850;2023-03-05T10:55:20;20.10;46.20
44863;DHT22;30597;49.628;10.850;2023-03-05T10:57:47;20.10;46.60
44863;DHT22;30597;49.628;10.850;2023-03-05T11:00:20;20.20;46.70
44863;DHT22;30597;49.628;10.850;2023-03-05T11:03:12;20.30;46.70
44863;DHT22;30597;49.628;10.850;2023-03-05T11:08:33;20.30;46.20
44863;DHT22;30597;49.628;10.850;2023-03-05T11:14:21;20.30;45.70
44863;DHT22;30597;49.628;10.850;2023-03-05T11:16:46;20.30;45.70
44863;DHT22;30597;49.628;10.850;2023-03-05T11:19:28;20.30;45.80
44863;DHT22;30597;49.628;10.850;2023-03-05T11:22:15;20.40;45.80
44863;DHT22;30597;49.628;10.850;2023-03-05T11:24:43;20.40;45.80
44863;DHT22;30597;49.628;10.850;2023-03-05T11:27:31;20.40;45.80
44863;DHT22;30597;49.628;10.850;2023-03-05T11:29:59;20.40;45.70
44863;DHT22;30597;49.628;10.850;2023-03-05T11:32:26;20.40;45.70
44863;DHT22;30597;49.628;10.850;2023-03-05T11:34:54;20.40;45.70
44863;DHT22;30597;49.628;10.850;2023-03-05T11:37:28;20.40;45.70
44863;DHT22;30597;49.628;10.850;2023-03-05T11:40:18;20.40;45.40
44863;DHT22;30597;49.628;10.850;2023-03-05T11:42:44;20.40;45.10
44863;DHT22;30597;49.628;10.850;2023-03-05T11:45:17;20.30;45.20
44863;DHT22;30597;49.628;10.850;2023-03-05T11:47:45;20.30;45.10
44863;DHT22;30597;49.628;10.850;2023-03-05T11:53:04;20.20;45.40
44863;DHT22;30597;49.628;10.850;2023-03-05T11:55:39;20.10;45.40
44863;DHT22;30597;49.628;10.850;2023-03-05T12:00:50;20.10;45.90
44863;DHT22;30597;49.628;10.850;2023-03-05T12:03:19;20.00;46.30
44863;DHT22;30597;49.628;10.850;2023-03-05T12:05:52;20.10;46.80
44863;DHT22;30597;49.628;10.850;2023-03-05T12:08:21;20.00;46.70
44863;DHT22;30597;49.628;10.850;2023-03-05T12:10:50;20.00;47.00
44863;DHT22;30597;49.628;10.850;2023-03-05T12:13:27;20.00;47.00
44863;DHT22;30597;49.628;10.850;2023-03-05T12:16:24;20.00;46.80
44863;DHT22;30597;49.628;10.850;2023-03-05T12:19:26;20.10;46.90
44863;DHT22;30597;49.628;10.850;2023-03-05T12:21:55;20.10;47.00
44863;DHT22;30597;49.628;10.850;2023-03-05T12:29:30;20.40;47.40
44863;DHT22;30597;49.628;10.850;2023-03-05T12:42:55;20.70;47.30
44863;DHT22;30597;49.628;10.850;2023-03-05T12:53:14;20.60;47.20
44863;DHT22;30597;49.628;10.850;2023-03-05T13:01:05;20.70;46.90
44863;DHT22;30597;49.628;10.850;2023-03-05T13:03:34;20.70;46.90
44863;DHT22;30597;49.628;10.850;2023-03-05T13:06:01;20.60;46.70
44863;DHT22;30597;49.628;10.850;2023-03-05T13:08:31;20.60;46.70
44863;DHT22;30597;49.628;10.850;2023-03-05T13:11:11;20.50;46.70
44863;DHT22;30597;49.628;10.850;2023-03-05T13:13:42;20.50;46.70
44863;DHT22;30597;49.628;10.850;2023-03-05T13:16:17;20.40;46.50
44863;DHT22;30597;49.628;10.850;2023-03-05T13:18:46;20.40;45.20
44863;DHT22;30597;49.628;10.850;2023-03-05T13:21:17;20.30;44.20
44863;DHT22;30597;49.628;10.850;2023-03-05T13:23:54;20.20;43.20
44863;DHT22;30597;49.628;10.850;2023-03-05T13:26:37;20.20;42.70
44863;DHT22;30597;49.628;10.850;2023-03-05T13:29:13;20.10;41.60
44863;DHT22;30597;49.628;10.850;2023-03-05T13:34:34;20.00;40.90
44863;DHT22;30597;49.628;10.850;2023-03-05T13:37:28;19.90;40.90
44863;DHT22;30597;49.628;10.850;2023-03-05T13:42:28;19.70;42.30
44863;DHT22;30597;49.628;10.850;2023-03-05T13:45:01;19.80;42.00
44863;DHT22;30597;49.628;10.850;2023-03-05T13:47:31;19.80;42.60
44863;DHT22;30597;49.628;10.850;2023-03-05T13:50:01;19.90;42.10
44863;DHT22;30597;49.628;10.850;2023-03-05T13:52:32;20.00;42.10
44863;DHT22;30597;49.628;10.850;2023-03-05T13:54:59;20.10;42.10
44863;DHT22;30597;49.628;10.850;2023-03-05T13:57:37;20.20;42.10
44863;DHT22;30597;49.628;10.850;2023-03-05T14:02:52;20.30;42.20
44863;DHT22;30597;49.628;10.850;2023-03-05T14:05:19;20.40;42.20
44863;DHT22;30597;49.628;10.850;2023-03-05T14:07:48;20.50;42.30
44863;DHT22;30597;49.628;10.850;2023-03-05T14:10:30;20.50;42.30
44863;DHT22;30597;49.628;10.850;2023-03-05T14:12:59;20.50;42.30
44863;DHT22;30597;49.628;10.850;2023-03-05T14:15:30;20.50;42.30
44863;DHT22;30597;49.628;10.850;2023-03-05T14:20:38;20.30;39.70
44863;DHT22;30597;49.628;10.850;2023-03-05T14:23:24;20.20;38.40
44863;DHT22;30597;49.628;10.850;2023-03-05T14:25:51;20.20;37.80
44863;DHT22;30597;49.628;10.850;2023-03-05T14:30:47;20.20;37.50
44863;DHT22;30597;49.628;10.850;2023-03-05T14:33:13;20.30;38.00
44863;DHT22;30597;49.628;10.850;2023-03-05T14:35:47;20.30;38.20
44863;DHT22;30597;49.628;10.850;2023-03-05T14:38:26;20.30;38.40
44863;DHT22;30597;49.628;10.850;2023-03-05T14:40:53;20.40;38.80
44863;DHT22;30597;49.628;10.850;2023-03-05T14:43:18;20.40;38.90
44863;DHT22;30597;49.628;10.850;2023-03-05T14:45:44;20.40;39.10
44863;DHT22;30597;49.628;10.850;2023-03-05T14:48:13;20.40;39.40
44863;DHT22;30597;49.628;10.850;2023-03-05T14:50:47;20.40;39.40
44863;DHT22;30597;49.628;10.850;2023-03-05T14:53:24;20.40;39.70
44863;DHT22;30597;49.628;10.850;2023-03-05T14:55:52;20.40;40.30
44863;DHT22;30597;49.628;10.850;2023-03-05T14:58:22;20.50;40.80
44863;DHT22;30597;49.628;10.850;2023-03-05T15:00:51;20.50;41.20
44863;DHT22;30597;49.628;10.850;2023-03-05T15:03:19;20.50;41.50
44863;DHT22;30597;49.628;10.850;2023-03-05T15:05:47;20.50;41.80
44863;DHT22;30597;49.628;10.850;2023-03-05T15:10:47;20.30;41.50
44863;DHT22;30597;49.628;10.850;2023-03-05T15:13:14;20.20;41.40
44863;DHT22;30597;49.628;10.850;2023-03-05T15:15:41;20.30;41.90
44863;DHT22;30597;49.628;10.850;2023-03-05T15:18:11;20.20;42.30
44863;DHT22;30597;49.628;10.850;2023-03-05T15:20:37;20.20;42.70
44863;DHT22;30597;49.628;10.850;2023-03-05T15:23:04;20.20;43.00
44863;DHT22;30597;49.628;10.850;2023-03-05T15:25:29;20.10;43.20
44863;DHT22;30597;49.628;10.850;2023-03-05T15:27:55;20.10;43.40
44863;DHT22;30597;49.628;10.850;2023-03-05T15:30:28;20.10;43.70
44863;DHT22;30597;49.628;10.850;2023-03-05T15:32:56;20.10;43.90
44863;DHT22;30597;49.628;10.850;2023-03-05T15:35:23;20.00;44.00
44863;DHT22;30597;49.628;10.850;2023-03-05T15:37:49;20.00;44.20
44863;DHT22;30597;49.628;10.850;2023-03-05T15:40:14;19.90;44.10
44863;DHT22;30597;49.628;10.850;2023-03-05T15:42:40;19.80;44.00
44863;DHT22;30597;49.628;10.850;2023-03-05T15:45:06;19.80;44.50
44863;DHT22;30597;49.628;10.850;2023-03-05T15:47:31;19.90;44.60
44863;DHT22;30597;49.628;10.850;2023-03-05T15:49:57;20.00;44.70
44863;DHT22;30597;49.628;10.850;2023-03-05T15:52:22;20.10;44.30
44863;DHT22;30597;49.628;10.850;2023-03-05T15:54:48;20.20;44.10
44863;DHT22;30597;49.628;10.850;2023-03-05T15:57:14;20.20;43.90
44863;DHT22;30597;49.628;10.850;2023-03-05T15:59:39;20.20;43.40
44863;DHT22;30597;49.628;10.850;2023-03-05T16:02:06;20.30;42.70
44863;DHT22;30597;49.628;10.850;2023-03-05T16:04:31;20.40;42.80
44863;DHT22;30597;49.628;10.850;2023-03-05T16:06:59;20.40;42.90
44863;DHT22;30597;49.628;10.850;2023-03-05T16:09:30;20.50;43.10
44863;DHT22;30597;49.628;10.850;2023-03-05T16:11:58;20.50;43.30
44863;DHT22;30597;49.628;10.850;2023-03-05T16:14:26;20.50;43.30
44863;DHT22;30597;49.628;10.850;2023-03-05T16:16:54;20.50;43.40
44863;DHT22;30597;49.628;10.850;2023-03-05T16:19:21;20.60;43.40
44863;DHT22;30597;49.628;10.850;2023-03-05T16:21:48;20.60;43.60
44863;DHT22;30597;49.628;10.850;2023-03-05T16:24:13;20.60;43.60
44863;DHT22;30597;49.628;10.850;2023-03-05T16:26:40;20.50;42.60
44863;DHT22;30597;49.628;10.850;2023-03-05T16:29:05;20.60;42.90
44863;DHT22;30597;49.628;10.850;2023-03-05T16:31:33;20.50;42.90
44863;DHT22;30597;49.628;10.850;2023-03-05T16:33:59;20.50;42.90
44863;DHT22;30597;49.628;10.850;2023-03-05T16:36:27;20.50;43.00
44863;DHT22;30597;49.628;10.850;2023-03-05T16:38:56;20.40;43.40
44863;DHT22;30597;49.628;10.850;2023-03-05T16:41:22;20.40;43.80
44863;DHT22;30597;49.628;10.850;2023-03-05T16:43:48;20.30;44.10